Time;durP1;ratioP1;P1;durP2;ratioP2;P2;SDS_P1;SDS_P2;PMS_P1;PMS_P2;Temp;Humidity;BMP_temperature;BMP_pressure;BME280_temperature;BME280_humidity;BME280_pressure;Samples;Min_cycle;Max_cycle;Signal;HPM_P1;HPM_P2
2020/12/18 00:00:56;;;;;;;42.20;24.88;;;3.60;99.90;;;;;;5012088;28;20406;-80
2020/12/18 00:03:22;;;;;;;40.83;22.73;;;3.50;99.90;;;;;;5013971;28;20045;-80
2020/12/18 00:05:48;;;;;;;33.88;21.20;;;3.50;99.90;;;;;;5027562;28;20042;-80
2020/12/18 00:08:15;;;;;;;32.10;20.60;;;3.40;99.90;;;;;;5013214;28;20026;-80
2020/12/18 00:10:41;;;;;;;36.45;21.05;;;3.40;99.90;;;;;;5014029;28;20041;-79
2020/12/18 00:13:08;;;;;;;34.38;20.13;;;3.30;99.90;;;;;;5017070;28;20052;-80
2020/12/18 00:15:34;;;;;;;34.90;19.85;;;3.30;99.90;;;;;;5013251;28;20495;-80
2020/12/18 00:18:01;;;;;;;34.92;20.70;;;3.30;99.90;;;;;;5013295;28;20398;-80
2020/12/18 00:20:27;;;;;;;32.97;21.58;;;3.30;99.90;;;;;;5013822;28;20052;-80
2020/12/18 00:22:53;;;;;;;50.63;24.27;;;3.30;99.90;;;;;;5013452;28;20254;-80
2020/12/18 00:25:19;;;;;;;107.45;42.10;;;3.20;99.90;;;;;;5013999;28;20038;-80
2020/12/18 00:27:46;;;;;;;65.68;31.63;;;3.20;99.90;;;;;;5013300;28;20030;-79
2020/12/18 00:30:13;;;;;;;41.80;23.30;;;3.10;99.90;;;;;;5013569;28;20026;-78
2020/12/18 00:32:39;;;;;;;46.95;23.52;;;3.00;99.90;;;;;;5013257;28;20026;-79
2020/12/18 00:35:08;;;;;;;36.95;21.17;;;3.00;99.90;;;;;;5013371;28;20044;-79
2020/12/18 00:37:34;;;;;;;31.30;19.85;;;2.90;99.90;;;;;;5012637;28;20398;-76
2020/12/18 00:40:00;;;;;;;34.42;20.10;;;2.90;99.90;;;;;;5013439;28;20036;-80
2020/12/18 00:42:30;;;;;;;37.25;21.38;;;2.90;99.90;;;;;;5013099;28;20030;-79
2020/12/18 00:44:57;;;;;;;33.78;20.08;;;2.80;99.90;;;;;;5013048;28;20037;-79
2020/12/18 00:47:23;;;;;;;35.65;20.77;;;2.80;99.90;;;;;;5013413;28;20025;-80
2020/12/18 00:49:50;;;;;;;33.15;21.13;;;2.90;99.90;;;;;;5012622;28;20057;-79
2020/12/18 00:52:16;;;;;;;40.78;23.17;;;2.80;99.90;;;;;;5011282;28;20045;-79
2020/12/18 00:54:43;;;;;;;40.47;24.10;;;2.70;99.90;;;;;;5012211;28;20052;-79
2020/12/18 00:57:13;;;;;;;49.72;25.92;;;2.80;99.90;;;;;;5011384;28;20045;-79
2020/12/18 00:59:39;;;;;;;51.92;26.30;;;2.80;99.90;;;;;;5012719;28;20026;-78
2020/12/18 01:02:08;;;;;;;45.53;26.48;;;2.80;99.90;;;;;;5012055;28;20042;-79
2020/12/18 01:04:34;;;;;;;51.80;29.08;;;2.70;99.90;;;;;;5011730;28;20053;-77
2020/12/18 01:07:03;;;;;;;58.85;30.35;;;2.70;99.90;;;;;;5011092;28;20046;-79
2020/12/18 01:09:31;;;;;;;48.13;26.30;;;2.60;99.90;;;;;;5011106;28;20046;-79
2020/12/18 01:12:04;;;;;;;37.53;24.70;;;2.60;99.90;;;;;;5011404;28;20038;-79
2020/12/18 01:14:30;;;;;;;39.70;23.63;;;2.50;99.90;;;;;;5015109;28;20034;-78
2020/12/18 01:16:59;;;;;;;39.20;22.10;;;2.50;99.90;;;;;;5031768;28;20042;-79
2020/12/18 01:19:26;;;;;;;43.95;24.33;;;2.40;99.90;;;;;;5012740;28;20041;-79
2020/12/18 01:21:53;;;;;;;38.08;22.50;;;2.40;99.90;;;;;;5010826;28;20042;-79
2020/12/18 01:24:28;;;;;;;36.80;21.48;;;2.30;99.90;;;;;;5011188;28;20042;-79
2020/12/18 01:26:58;;;;;;;40.85;22.30;;;2.40;99.90;;;;;;5011409;28;20038;-79
2020/12/18 01:29:25;;;;;;;42.10;23.70;;;2.50;99.90;;;;;;5012370;28;20033;-79
2020/12/18 01:31:54;;;;;;;44.08;23.50;;;2.40;99.90;;;;;;5011325;28;20051;-79
2020/12/18 01:34:21;;;;;;;36.25;21.20;;;2.30;99.90;;;;;;5002580;28;20479;-76
2020/12/18 01:36:47;;;;;;;37.22;21.27;;;2.20;99.90;;;;;;5010582;28;20057;-78
2020/12/18 01:39:26;;;;;;;39.25;22.95;;;2.20;99.90;;;;;;5015309;28;20050;-78
2020/12/18 01:41:53;;;;;;;38.40;22.17;;;2.30;99.90;;;;;;5025744;28;20391;-78
2020/12/18 01:44:19;;;;;;;40.42;21.95;;;2.30;99.90;;;;;;5011505;28;20050;-79
2020/12/18 01:46:50;;;;;;;37.40;21.65;;;2.30;99.90;;;;;;5011847;28;20061;-79
2020/12/18 01:49:17;;;;;;;37.03;21.52;;;2.30;99.90;;;;;;5010687;28;20145;-78
2020/12/18 01:51:45;;;;;;;39.38;22.02;;;2.30;99.90;;;;;;5012205;28;20395;-78
2020/12/18 01:54:18;;;;;;;;;;;2.30;99.90;;;;;;5027335;28;20045;-78
2020/12/18 01:56:46;;;;;;;38.30;21.30;;;2.30;99.90;;;;;;5011944;28;19920;-78
2020/12/18 01:59:22;;;;;;;34.22;20.00;;;2.20;99.90;;;;;;5010593;28;20395;-78
2020/12/18 02:02:05;;;;;;;38.05;22.13;;;2.20;99.90;;;;;;5010894;28;20042;-78
2020/12/18 02:04:42;;;;;;;39.00;23.65;;;2.10;99.90;;;;;;5010166;28;20506;-79
2020/12/18 02:07:11;;;;;;;47.38;25.50;;;2.30;99.90;;;;;;5011579;28;20045;-79
2020/12/18 02:09:50;;;;;;;53.13;29.13;;;2.60;99.90;;;;;;5010270;28;20042;-78
2020/12/18 02:12:19;;;;;;;48.33;27.50;;;2.70;99.90;;;;;;5010826;28;20041;-79
2020/12/18 02:14:52;;;;;;;45.92;26.13;;;2.60;99.90;;;;;;5010182;28;20068;-79
2020/12/18 02:17:19;;;;;;;49.85;25.67;;;2.50;99.90;;;;;;5010969;28;20042;-79
2020/12/18 02:19:52;;;;;;;45.55;25.70;;;2.40;99.90;;;;;;5013276;28;20054;-79
2020/12/18 02:22:24;;;;;;;58.85;28.02;;;2.30;99.90;;;;;;5026489;28;20030;-78
2020/12/18 02:25:07;;;;;;;47.05;27.00;;;2.50;99.90;;;;;;5013152;28;20050;-79
2020/12/18 02:27:41;;;;;;;53.83;28.83;;;2.30;99.90;;;;;;5010972;28;20042;-79
2020/12/18 02:30:13;;;;;;;42.97;25.42;;;2.20;99.90;;;;;;5012392;28;20038;-79
2020/12/18 02:33:08;;;;;;;51.67;26.50;;;2.10;99.90;;;;;;5030057;28;20042;-78
2020/12/18 02:35:43;;;;;;;46.60;24.15;;;2.00;99.90;;;;;;5024326;28;20053;-79
2020/12/18 02:38:11;;;;;;;39.17;22.05;;;2.00;99.90;;;;;;5014366;28;20049;-79
2020/12/18 02:40:39;;;;;;;49.60;23.50;;;1.90;99.90;;;;;;5014997;28;20041;-78
2020/12/18 02:43:24;;;;;;;42.88;22.75;;;1.90;99.90;;;;;;5015372;28;20041;-78
2020/12/18 02:45:51;;;;;;;42.58;23.00;;;1.90;99.90;;;;;;5030314;28;20045;-79
2020/12/18 02:48:22;;;;;;;40.83;23.23;;;1.90;99.90;;;;;;5014438;28;20045;-79
2020/12/18 02:50:57;;;;;;;49.05;23.80;;;1.90;99.90;;;;;;5013572;28;20046;-78
2020/12/18 02:53:23;;;;;;;47.58;25.10;;;2.00;99.90;;;;;;5015791;28;20041;-79
2020/12/18 02:56:26;;;;;;;42.35;23.67;;;2.00;99.90;;;;;;5002987;28;20050;-79
2020/12/18 02:59:05;;;;;;;47.05;22.85;;;1.90;99.90;;;;;;5014128;28;20045;-79
2020/12/18 03:01:32;;;;;;;44.70;24.25;;;1.80;99.90;;;;;;5038645;28;20042;-79
2020/12/18 03:03:59;;;;;;;39.28;21.75;;;1.70;99.90;;;;;;5017769;28;20041;-79
2020/12/18 03:06:35;;;;;;;40.10;21.13;;;1.70;99.90;;;;;;5016298;28;20480;-79
2020/12/18 03:09:03;;;;;;;42.17;23.48;;;1.70;99.90;;;;;;5014800;28;20046;-79
2020/12/18 03:11:30;;;;;;;42.90;22.40;;;1.60;99.90;;;;;;5014438;28;20399;-78
2020/12/18 03:13:57;;;;;;;38.78;22.10;;;1.60;99.90;;;;;;5014119;28;20046;-78
2020/12/18 03:16:28;;;;;;;41.55;22.60;;;1.50;99.90;;;;;;5013755;28;20056;-76
2020/12/18 03:19:11;;;;;;;41.78;22.52;;;1.50;99.90;;;;;;5014874;28;20463;-79
2020/12/18 03:21:38;;;;;;;50.13;23.65;;;1.60;99.90;;;;;;5014893;28;20053;-79
2020/12/18 03:24:23;;;;;;;46.20;24.92;;;1.70;99.90;;;;;;5015297;28;20037;-79
2020/12/18 03:27:18;;;;;;;50.58;25.65;;;2.00;99.90;;;;;;4997384;28;20038;-79
2020/12/18 03:29:53;;;;;;;45.83;24.60;;;2.00;99.90;;;;;;5013050;28;20042;-79
2020/12/18 03:32:21;;;;;;;45.40;23.95;;;1.80;99.90;;;;;;5022904;28;20042;-79
2020/12/18 03:35:00;;;;;;;42.88;22.25;;;1.80;99.90;;;;;;5032033;28;20479;-79
2020/12/18 03:37:29;;;;;;;54.03;25.42;;;1.70;99.90;;;;;;5013419;28;20048;-79
2020/12/18 03:39:58;;;;;;;37.88;20.88;;;1.60;99.90;;;;;;5013624;28;20038;-79
2020/12/18 03:42:31;;;;;;;41.05;21.55;;;1.60;99.90;;;;;;5013951;28;20064;-79
2020/12/18 03:44:58;;;;;;;39.53;22.20;;;1.50;99.90;;;;;;5026077;28;20515;-79
2020/12/18 03:47:46;;;;;;;44.45;24.15;;;1.60;99.90;;;;;;5014133;28;20046;-79
2020/12/18 03:50:23;;;;;;;49.08;25.63;;;1.70;99.90;;;;;;5013519;28;20387;-79
2020/12/18 03:52:54;;;;;;;40.45;19.23;;;1.70;99.90;;;;;;5029302;28;20046;-79
2020/12/18 03:55:20;;;;;;;55.65;27.42;;;1.80;99.90;;;;;;5012553;28;20041;-79
2020/12/18 03:58:06;;;;;;;55.08;27.05;;;2.00;99.90;;;;;;5013987;28;20395;-78
2020/12/18 04:00:55;;;;;;;55.80;26.63;;;2.00;99.90;;;;;;4977959;28;20046;-76
2020/12/18 04:03:22;;;;;;;52.58;26.83;;;1.90;99.90;;;;;;5030435;28;20037;-79
2020/12/18 04:05:49;;;;;;;49.63;26.92;;;1.80;99.90;;;;;;5012688;28;20057;-78
2020/12/18 04:08:17;;;;;;;50.53;24.77;;;1.80;99.90;;;;;;5015211;28;20041;-79
2020/12/18 04:11:02;;;;;;;52.42;25.15;;;1.60;99.90;;;;;;5020729;28;20060;-79
2020/12/18 04:13:45;;;;;;;45.95;23.60;;;1.50;99.90;;;;;;5011682;28;20049;-79
2020/12/18 04:16:11;;;;;;;45.50;24.65;;;1.40;99.90;;;;;;5012854;28;20399;-79
2020/12/18 04:18:38;;;;;;;43.78;22.63;;;1.40;99.90;;;;;;5011815;28;20047;-78
2020/12/18 04:21:10;;;;;;;45.03;23.23;;;1.40;99.90;;;;;;5012889;28;20049;-79
2020/12/18 04:23:43;;;;;;;42.88;23.77;;;1.40;99.90;;;;;;5012029;28;20064;-79
2020/12/18 04:26:17;;;;;;;40.85;22.52;;;1.30;99.90;;;;;;5013266;28;20042;-79
2020/12/18 04:28:46;;;;;;;37.53;20.55;;;1.30;99.90;;;;;;5012284;28;20049;-79
2020/12/18 04:31:13;;;;;;;39.13;22.15;;;1.30;99.90;;;;;;5013605;28;20040;-79
2020/12/18 04:33:40;;;;;;;41.75;22.58;;;1.30;99.90;;;;;;5011513;28;20045;-79
2020/12/18 04:36:06;;;;;;;36.35;21.45;;;1.30;99.90;;;;;;5012034;28;20052;-79
2020/12/18 04:38:39;;;;;;;44.72;20.42;;;1.20;99.90;;;;;;5011528;28;20049;-78
2020/12/18 04:41:10;;;;;;;37.40;19.42;;;1.10;99.90;;;;;;5013231;28;20034;-79
2020/12/18 04:43:44;;;;;;;35.28;18.65;;;1.10;99.90;;;;;;5011696;28;20046;-78
2020/12/18 04:46:21;;;;;;;31.17;18.27;;;1.00;99.90;;;;;;5027614;28;20049;-78
2020/12/18 04:48:49;;;;;;;31.73;19.58;;;0.80;99.90;;;;;;5010678;28;20050;-78
2020/12/18 04:51:24;;;;;;;35.22;19.92;;;0.80;99.90;;;;;;5014391;28;20045;-78
2020/12/18 04:53:59;;;;;;;37.95;19.63;;;0.80;99.90;;;;;;5011024;28;20053;-80
2020/12/18 04:56:34;;;;;;;34.80;20.15;;;0.70;99.90;;;;;;5011747;28;20042;-79
2020/12/18 04:59:07;;;;;;;33.30;19.77;;;0.80;99.90;;;;;;5016073;28;20046;-78
2020/12/18 05:01:57;;;;;;;25.52;14.45;;;0.70;99.90;;;;;;5010570;28;20290;-79
2020/12/18 05:04:31;;;;;;;41.95;20.90;;;0.70;99.90;;;;;;5012928;28;20034;-76
2020/12/18 05:07:10;;;;;;;40.42;20.90;;;0.70;99.90;;;;;;5014372;28;20040;-79
2020/12/18 05:09:44;;;;;;;44.03;23.23;;;0.80;99.90;;;;;;5029047;28;20042;-79
2020/12/18 05:12:12;;;;;;;43.00;22.13;;;0.90;99.90;;;;;;5011366;28;20045;-78
2020/12/18 05:14:43;;;;;;;42.83;22.55;;;0.90;99.90;;;;;;5010683;28;20042;-84
2020/12/18 05:17:22;;;;;;;47.05;22.45;;;0.90;99.90;;;;;;5011114;28;20042;-78
2020/12/18 05:19:52;;;;;;;40.33;21.85;;;0.70;99.90;;;;;;5011149;28;20046;-78
2020/12/18 05:22:54;;;;;;;40.47;19.73;;;0.70;99.90;;;;;;5011710;28;20050;-79
2020/12/18 05:25:27;;;;;;;39.53;22.15;;;0.70;99.90;;;;;;5012385;28;20036;-79
2020/12/18 05:27:59;;;;;;;40.35;22.40;;;0.70;99.90;;;;;;5010553;28;20049;-79
2020/12/18 05:30:27;;;;;;;38.53;21.02;;;0.60;99.90;;;;;;5011306;28;20042;-76
2020/12/18 05:33:15;;;;;;;41.47;20.77;;;0.60;99.90;;;;;;5006734;28;20038;-78
2020/12/18 05:36:02;;;;;;;38.67;21.92;;;0.60;99.90;;;;;;5011536;28;20049;-78
2020/12/18 05:38:33;;;;;;;38.88;20.88;;;0.50;99.90;;;;;;5013811;28;20045;-78
2020/12/18 05:41:10;;;;;;;44.90;22.20;;;0.40;99.90;;;;;;5011236;28;20038;-78
2020/12/18 05:43:49;;;;;;;44.13;23.10;;;0.40;99.90;;;;;;4995787;28;20042;-78
2020/12/18 05:46:40;;;;;;;37.70;21.50;;;0.50;99.90;;;;;;5011897;28;20033;-78
2020/12/18 05:49:28;;;;;;;39.92;21.25;;;0.40;99.90;;;;;;5010785;28;20041;-78
2020/12/18 05:51:58;;;;;;;42.70;21.60;;;0.30;99.90;;;;;;5012643;28;20041;-78
2020/12/18 05:54:40;;;;;;;45.50;22.55;;;0.40;99.90;;;;;;5010303;28;20507;-77
2020/12/18 05:57:11;;;;;;;37.03;20.48;;;0.30;99.90;;;;;;5012315;28;20064;-79
2020/12/18 05:59:49;;;;;;;38.28;20.98;;;0.30;99.90;;;;;;5010016;28;20130;-77
2020/12/18 06:02:55;;;;;;;42.92;20.98;;;0.30;99.90;;;;;;5011528;28;20042;-78
2020/12/18 06:05:28;;;;;;;41.38;20.83;;;0.20;99.90;;;;;;5014288;28;20050;-79
2020/12/18 06:08:21;;;;;;;39.15;21.63;;;0.20;99.90;;;;;;5012312;28;20038;-79
2020/12/18 06:10:55;;;;;;;47.88;23.48;;;0.30;99.90;;;;;;5015847;28;20037;-79
2020/12/18 06:13:42;;;;;;;42.05;20.25;;;0.20;99.90;;;;;;5028716;28;20061;-78
2020/12/18 06:16:40;;;;;;;40.60;19.95;;;0.10;99.90;;;;;;5014245;28;20517;-80
2020/12/18 06:19:19;;;;;;;40.05;21.63;;;0.10;99.90;;;;;;5014155;28;20046;-79
2020/12/18 06:21:55;;;;;;;38.28;18.45;;;0.10;99.90;;;;;;5013889;28;20050;-79
2020/12/18 06:24:44;;;;;;;38.95;19.20;;;0.10;99.90;;;;;;5014750;28;20549;-79
2020/12/18 06:27:25;;;;;;;36.08;18.80;;;0.00;99.90;;;;;;5014711;28;20506;-79
2020/12/18 06:30:10;;;;;;;36.10;17.95;;;0.00;99.90;;;;;;5014284;28;20045;-79
2020/12/18 06:32:59;;;;;;;37.03;17.92;;;0.00;99.90;;;;;;5014215;28;20037;-79
2020/12/18 06:35:46;;;;;;;35.92;19.15;;;-0.10;99.90;;;;;;5021528;28;20050;-79
2020/12/18 06:38:36;;;;;;;33.05;17.42;;;-0.20;99.90;;;;;;5001530;28;20041;-79
2020/12/18 06:41:27;;;;;;;42.05;19.35;;;-0.10;99.90;;;;;;5016919;28;20038;-79
2020/12/18 06:44:47;;;;;;;51.60;20.45;;;0.00;99.90;;;;;;5015424;28;20049;-79
2020/12/18 06:47:31;;;;;;;46.03;20.25;;;0.00;99.90;;;;;;5015090;28;20034;-77
2020/12/18 06:50:23;;;;;;;52.03;21.63;;;0.00;99.90;;;;;;5014937;28;20050;-77
2020/12/18 06:52:56;;;;;;;60.72;22.02;;;0.00;99.90;;;;;;5015598;28;20068;-79
2020/12/18 06:55:35;;;;;;;50.72;20.60;;;-0.10;99.90;;;;;;5027845;28;20037;-79
2020/12/18 06:58:37;;;;;;;61.00;32.20;;;-0.10;99.90;;;;;;5015237;28;20030;-79
2020/12/18 07:01:03;;;;;;;45.92;23.95;;;-0.10;99.90;;;;;;5015965;28;20029;-80
2020/12/18 07:03:46;;;;;;;40.63;20.02;;;-0.20;99.90;;;;;;5015461;28;20026;-79
2020/12/18 07:06:21;;;;;;;44.05;19.52;;;-0.10;99.90;;;;;;5014701;28;20057;-79
2020/12/18 07:08:48;;;;;;;36.67;19.50;;;-0.10;99.90;;;;;;5013809;28;20048;-78
2020/12/18 07:11:16;;;;;;;50.63;21.33;;;0.00;99.90;;;;;;5014485;28;20376;-79
2020/12/18 07:13:51;;;;;;;45.88;21.60;;;0.00;99.90;;;;;;5013715;28;20041;-79
2020/12/18 07:16:26;;;;;;;36.85;20.15;;;0.00;99.90;;;;;;5017862;28;20486;-79
2020/12/18 07:18:56;;;;;;;41.67;20.17;;;0.00;99.90;;;;;;5014102;28;20046;-79
2020/12/18 07:21:23;;;;;;;38.05;20.48;;;0.10;99.90;;;;;;5015573;28;20054;-79
2020/12/18 07:23:52;;;;;;;49.88;20.85;;;0.10;99.90;;;;;;5013853;28;20041;-79
2020/12/18 07:26:20;;;;;;;52.28;20.27;;;0.10;99.90;;;;;;5018803;28;20044;-76
2020/12/18 07:28:47;;;;;;;34.30;18.45;;;0.10;99.90;;;;;;5018634;28;20095;-78
2020/12/18 07:31:22;;;;;;;46.85;20.73;;;0.10;99.90;;;;;;5014385;28;20493;-78
2020/12/18 07:33:56;;;;;;;35.85;18.80;;;0.20;99.90;;;;;;5014081;28;20050;-79
2020/12/18 07:36:27;;;;;;;55.90;21.77;;;0.20;99.90;;;;;;5013795;28;20407;-79
2020/12/18 07:38:57;;;;;;;33.78;15.50;;;0.20;99.90;;;;;;5014486;28;20030;-78
2020/12/18 07:41:26;;;;;;;42.50;20.43;;;0.20;99.90;;;;;;5014798;28;20030;-80
2020/12/18 07:43:53;;;;;;;49.20;20.45;;;0.20;99.90;;;;;;5014434;28;20477;-80
2020/12/18 07:46:19;;;;;;;40.42;19.70;;;0.20;99.90;;;;;;5017400;28;20371;-79
2020/12/18 07:48:47;;;;;;;43.90;21.52;;;0.20;99.90;;;;;;5013205;28;20038;-78
2020/12/18 07:51:20;;;;;;;51.03;20.10;;;0.20;99.90;;;;;;5014005;28;20041;-77
2020/12/18 07:53:51;;;;;;;44.10;18.77;;;0.30;99.90;;;;;;5014002;28;20034;-79
2020/12/18 07:56:19;;;;;;;50.33;19.40;;;0.30;99.90;;;;;;5014100;28;20049;-78
2020/12/18 07:59:04;;;;;;;48.97;22.33;;;0.30;99.90;;;;;;5013677;28;20042;-78
2020/12/18 08:01:32;;;;;;;60.17;24.05;;;0.40;99.90;;;;;;5014052;28;20037;-79
2020/12/18 08:04:03;;;;;;;54.28;23.27;;;0.40;99.90;;;;;;5013531;28;20034;-79
2020/12/18 08:06:32;;;;;;;89.25;22.60;;;0.40;99.90;;;;;;5014077;28;20053;-79
2020/12/18 08:09:07;;;;;;;57.92;20.27;;;0.40;99.90;;;;;;5013297;28;20034;-78
2020/12/18 08:11:36;;;;;;;64.28;20.95;;;0.40;99.90;;;;;;5013287;28;20038;-79
2020/12/18 08:14:03;;;;;;;65.25;21.60;;;0.50;99.90;;;;;;5013322;28;20037;-78
2020/12/18 08:16:31;;;;;;;62.08;20.38;;;0.60;99.90;;;;;;5022437;28;20038;-79
2020/12/18 08:19:11;;;;;;;87.20;21.25;;;0.60;99.90;;;;;;5012726;28;20057;-79
2020/12/18 08:21:40;;;;;;;69.85;23.08;;;0.70;99.90;;;;;;5013343;28;20038;-79
2020/12/18 08:24:26;;;;;;;65.10;21.38;;;0.70;99.90;;;;;;5013562;28;20034;-78
2020/12/18 08:27:01;;;;;;;77.43;22.65;;;0.70;99.90;;;;;;5012655;28;20034;-79
2020/12/18 08:29:31;;;;;;;84.85;21.60;;;0.80;99.90;;;;;;5015092;28;20395;-78
2020/12/18 08:32:02;;;;;;;50.45;20.27;;;0.80;99.90;;;;;;5012829;28;20050;-77
2020/12/18 08:34:30;;;;;;;;;;;0.90;99.90;;;;;;5013495;28;20391;-78
2020/12/18 08:36:57;;;;;;;99.20;20.40;;;0.90;99.90;;;;;;5012683;28;19924;-78
2020/12/18 08:39:32;;;;;;;77.28;21.05;;;1.00;99.90;;;;;;5020797;28;20029;-78
2020/12/18 08:41:58;;;;;;;70.05;22.65;;;1.10;99.90;;;;;;5024253;28;20463;-75
2020/12/18 08:44:36;;;;;;;55.97;20.70;;;1.10;99.90;;;;;;5012285;28;20459;-75
2020/12/18 08:47:03;;;;;;;75.75;22.88;;;1.10;99.90;;;;;;5012157;28;20045;-76
2020/12/18 08:49:29;;;;;;;88.80;23.63;;;1.20;99.90;;;;;;5012885;28;20026;-75
2020/12/18 08:52:02;;;;;;;71.45;24.35;;;1.30;99.90;;;;;;5012413;28;20045;-74
2020/12/18 08:54:31;;;;;;;64.88;23.23;;;1.30;99.90;;;;;;5012862;28;20056;-73
2020/12/18 08:57:14;;;;;;;106.57;25.83;;;1.40;99.90;;;;;;5020898;28;20041;-76
2020/12/18 09:00:11;;;;;;;114.68;26.60;;;1.40;99.90;;;;;;5012489;28;20033;-75
2020/12/18 09:02:42;;;;;;;136.95;28.60;;;1.40;99.90;;;;;;5012644;28;20030;-76
2020/12/18 09:05:25;;;;;;;76.28;25.50;;;1.50;99.90;;;;;;5012461;28;20030;-75
2020/12/18 09:07:57;;;;;;;73.43;22.50;;;1.60;99.90;;;;;;5011924;28;20050;-75
2020/12/18 09:10:41;;;;;;;104.95;28.08;;;1.60;99.90;;;;;;5012686;28;20033;-75
2020/12/18 09:13:16;;;;;;;90.22;23.27;;;1.60;99.90;;;;;;5012047;28;20042;-75
2020/12/18 09:15:46;;;;;;;137.05;28.95;;;1.80;99.90;;;;;;5012116;28;20049;-75
2020/12/18 09:18:15;;;;;;;139.15;26.25;;;1.70;99.90;;;;;;5012641;28;20034;-75
2020/12/18 09:20:43;;;;;;;123.18;27.40;;;1.80;99.90;;;;;;5011666;28;20407;-74
2020/12/18 09:23:17;;;;;;;132.68;31.05;;;1.80;99.90;;;;;;5012443;28;20056;-76
2020/12/18 09:25:53;;;;;;;123.07;27.20;;;1.80;99.90;;;;;;5011907;28;20438;-76
2020/12/18 09:28:20;;;;;;;126.47;30.23;;;1.90;99.90;;;;;;5012374;28;20467;-75
2020/12/18 09:30:47;;;;;;;113.78;28.52;;;1.90;99.90;;;;;;5012228;28;20053;-74
2020/12/18 09:33:25;;;;;;;117.18;28.77;;;1.90;99.90;;;;;;5012439;28;20734;-74
2020/12/18 09:35:56;;;;;;;88.72;27.00;;;2.00;99.90;;;;;;5011393;28;20399;-74
2020/12/18 09:38:29;;;;;;;101.97;29.30;;;2.10;99.90;;;;;;5012309;28;20387;-76
2020/12/18 09:40:56;;;;;;;81.28;37.70;;;2.10;99.90;;;;;;5016248;28;20033;-74
2020/12/18 09:43:22;;;;;;;206.55;68.13;;;2.20;99.90;;;;;;5016450;28;20041;-75
2020/12/18 09:45:49;;;;;;;93.32;31.95;;;2.30;99.90;;;;;;5015731;28;20033;-75
2020/12/18 09:48:16;;;;;;;83.82;24.65;;;2.20;99.90;;;;;;5016400;28;20026;-76
2020/12/18 09:50:42;;;;;;;72.72;23.65;;;2.20;99.90;;;;;;5016244;28;20030;-81
2020/12/18 09:53:09;;;;;;;65.78;22.02;;;2.40;99.90;;;;;;5016703;28;20526;-82
2020/12/18 09:55:35;;;;;;;59.88;22.15;;;2.40;99.90;;;;;;5016339;28;20022;-78
2020/12/18 09:58:03;;;;;;;58.05;22.10;;;2.50;99.90;;;;;;5016084;28;20038;-82
2020/12/18 10:00:30;;;;;;;52.47;22.38;;;2.60;99.90;;;;;;5016439;28;20037;-84
2020/12/18 10:02:57;;;;;;;52.92;21.33;;;2.70;99.90;;;;;;5016123;28;20036;-84
2020/12/18 10:05:24;;;;;;;66.07;24.73;;;2.80;99.90;;;;;;5016508;28;20032;-86
2020/12/18 10:07:52;;;;;;;42.70;23.60;;;2.90;99.90;;;;;;5017023;28;20026;-85
2020/12/18 10:10:19;;;;;;;48.75;23.60;;;2.80;99.90;;;;;;5016869;28;20030;-86
2020/12/18 10:12:45;;;;;;;47.70;25.98;;;2.90;99.90;;;;;;5015272;28;20037;-86
2020/12/18 10:15:12;;;;;;;55.78;25.10;;;3.10;99.90;;;;;;5017335;28;20026;-86
2020/12/18 10:17:38;;;;;;;59.90;23.27;;;3.20;99.90;;;;;;5022395;28;20053;-86
2020/12/18 10:20:05;;;;;;;41.67;21.73;;;3.20;99.90;;;;;;5018769;28;20137;-86
2020/12/18 10:22:32;;;;;;;53.30;21.90;;;3.10;99.90;;;;;;5020766;28;20032;-83
2020/12/18 10:24:58;;;;;;;52.22;20.65;;;2.90;99.90;;;;;;5015942;28;20426;-83
2020/12/18 10:27:24;;;;;;;57.60;21.45;;;2.80;99.90;;;;;;5016141;28;20399;-83
2020/12/18 10:29:54;;;;;;;55.45;22.85;;;2.90;99.90;;;;;;5014503;28;20399;-84
2020/12/18 10:32:24;;;;;;;82.10;23.35;;;2.90;99.90;;;;;;5016750;28;20030;-84
2020/12/18 10:34:50;;;;;;;97.93;26.38;;;3.00;99.90;;;;;;5016324;28;20033;-84
2020/12/18 10:37:17;;;;;;;78.93;24.58;;;3.10;99.90;;;;;;5016370;28;20046;-83
2020/12/18 10:39:43;;;;;;;96.43;31.75;;;2.90;99.90;;;;;;5023897;28;20030;-79
2020/12/18 10:42:09;;;;;;;78.03;25.17;;;2.80;99.90;;;;;;5021545;28;20026;-83
2020/12/18 10:44:37;;;;;;;119.35;28.42;;;2.80;99.90;;;;;;5015606;28;20041;-77
2020/12/18 10:47:03;;;;;;;97.75;24.67;;;2.80;99.90;;;;;;5015162;28;20045;-81
2020/12/18 10:49:31;;;;;;;139.63;36.75;;;2.90;99.90;;;;;;5016233;28;20030;-83
2020/12/18 10:51:57;;;;;;;97.68;31.30;;;2.90;99.90;;;;;;5013166;28;20475;-83
2020/12/18 10:54:23;;;;;;;139.52;32.83;;;3.10;99.90;;;;;;5015481;28;20034;-84
2020/12/18 10:56:55;;;;;;;85.90;28.20;;;3.20;99.90;;;;;;5014702;28;20056;-78
2020/12/18 10:59:21;;;;;;;;;;;3.10;99.90;;;;;;5015981;28;20486;-83
2020/12/18 11:01:54;;;;;;;108.72;25.88;;;3.10;99.90;;;;;;5015560;28;19909;-83
2020/12/18 11:04:20;;;;;;;64.32;22.27;;;3.00;99.90;;;;;;5015995;28;20034;-83
2020/12/18 11:06:47;;;;;;;114.78;27.50;;;3.00;99.90;;;;;;5015034;28;20038;-80
2020/12/18 11:09:15;;;;;;;122.88;26.67;;;3.00;99.90;;;;;;5028673;28;20033;-81
2020/12/18 11:11:41;;;;;;;98.53;26.60;;;2.90;99.90;;;;;;5026779;28;20036;-83
2020/12/18 11:14:08;;;;;;;110.35;27.35;;;2.90;99.90;;;;;;5015537;28;20034;-82
2020/12/18 11:16:35;;;;;;;109.43;28.35;;;3.00;99.90;;;;;;5018173;28;20396;-79
2020/12/18 11:19:01;;;;;;;92.28;25.75;;;3.00;99.90;;;;;;5013903;28;20041;-78
2020/12/18 11:21:29;;;;;;;117.05;28.10;;;3.00;99.90;;;;;;5014670;28;20060;-79
2020/12/18 11:23:56;;;;;;;109.50;27.60;;;3.10;99.90;;;;;;5014610;28;20033;-79
2020/12/18 11:26:22;;;;;;;95.25;26.42;;;3.10;99.90;;;;;;5014814;28;20029;-79
2020/12/18 11:28:49;;;;;;;85.55;26.40;;;3.20;99.90;;;;;;5014582;28;20038;-79
2020/12/18 11:31:15;;;;;;;83.07;24.23;;;3.30;99.90;;;;;;5014888;28;20029;-78
2020/12/18 11:33:42;;;;;;;87.53;26.65;;;3.40;99.90;;;;;;5042960;28;20037;-79
2020/12/18 11:36:08;;;;;;;61.63;27.70;;;3.50;99.90;;;;;;5025598;28;20042;-78
2020/12/18 11:38:34;;;;;;;83.05;28.35;;;3.60;99.90;;;;;;5017734;28;20037;-78
2020/12/18 11:41:01;;;;;;;77.00;27.08;;;3.70;99.90;;;;;;5013744;28;20033;-78
2020/12/18 11:43:27;;;;;;;84.03;27.60;;;3.60;99.90;;;;;;5014092;28;20050;-79
2020/12/18 11:45:53;;;;;;;83.20;29.35;;;3.80;99.90;;;;;;5014346;28;20386;-78
2020/12/18 11:48:20;;;;;;;97.03;26.75;;;3.80;99.90;;;;;;5014106;28;20034;-79
2020/12/18 11:50:46;;;;;;;88.80;28.27;;;3.80;99.90;;;;;;5013865;28;20467;-79
2020/12/18 11:53:13;;;;;;;91.07;26.48;;;3.90;99.90;;;;;;5014351;28;20038;-79
2020/12/18 11:55:39;;;;;;;52.70;26.05;;;3.80;99.90;;;;;;5014070;28;20037;-79
2020/12/18 11:58:05;;;;;;;82.97;27.35;;;3.80;99.90;;;;;;5012329;28;20065;-79
2020/12/18 12:00:31;;;;;;;89.93;27.65;;;3.90;99.90;;;;;;5014872;28;20464;-80
2020/12/18 12:02:58;;;;;;;80.50;26.40;;;3.80;99.90;;;;;;5013844;28;20041;-79
2020/12/18 12:05:24;;;;;;;77.50;26.83;;;3.80;99.90;;;;;;5027333;28;20028;-79
2020/12/18 12:07:52;;;;;;;81.85;28.45;;;3.80;99.90;;;;;;5033148;28;20050;-79
2020/12/18 12:10:19;;;;;;;62.97;26.98;;;4.00;99.90;;;;;;5015975;28;20022;-78
2020/12/18 12:12:46;;;;;;;81.10;29.88;;;4.00;99.90;;;;;;5013396;28;20034;-78
2020/12/18 12:15:14;;;;;;;69.10;28.90;;;4.10;99.90;;;;;;5013399;28;20034;-79
2020/12/18 12:17:40;;;;;;;73.07;30.85;;;4.20;99.90;;;;;;5013201;28;20487;-79
2020/12/18 12:20:06;;;;;;;87.57;29.67;;;4.20;99.90;;;;;;5013517;28;20041;-79
2020/12/18 12:22:33;;;;;;;76.55;29.42;;;4.20;99.90;;;;;;5013724;28;20037;-79
2020/12/18 12:24:59;;;;;;;81.53;29.42;;;4.10;99.90;;;;;;5012717;28;20046;-79
2020/12/18 12:27:26;;;;;;;70.15;29.13;;;4.20;99.90;;;;;;5015267;28;20049;-78
2020/12/18 12:29:54;;;;;;;81.07;31.70;;;4.20;99.90;;;;;;5013001;28;20388;-78
2020/12/18 12:32:21;;;;;;;81.13;35.33;;;4.40;99.90;;;;;;5012928;28;20034;-77
2020/12/18 12:34:48;;;;;;;64.43;32.60;;;4.60;99.90;;;;;;5029057;28;20042;-78
2020/12/18 12:37:14;;;;;;;61.45;31.55;;;4.70;99.90;;;;;;5012872;28;20042;-78
2020/12/18 12:39:42;;;;;;;60.88;29.10;;;4.50;99.90;;;;;;5013040;28;20366;-78
2020/12/18 12:42:08;;;;;;;64.35;33.70;;;4.60;99.90;;;;;;5019486;28;20363;-78
2020/12/18 12:44:35;;;;;;;71.88;33.65;;;4.60;99.90;;;;;;5018165;28;20038;-78
2020/12/18 12:47:01;;;;;;;68.80;33.17;;;4.70;99.90;;;;;;5012709;28;20041;-76
2020/12/18 12:49:28;;;;;;;61.10;32.15;;;4.70;99.90;;;;;;5013227;28;20030;-77
2020/12/18 12:51:55;;;;;;;66.13;31.98;;;4.50;99.90;;;;;;5012424;28;20053;-77
2020/12/18 12:54:23;;;;;;;68.65;31.75;;;4.50;99.90;;;;;;5020793;28;20030;-77
2020/12/18 12:56:49;;;;;;;67.28;33.83;;;4.60;99.90;;;;;;5022421;28;20053;-77
2020/12/18 12:59:16;;;;;;;74.72;35.20;;;4.70;99.90;;;;;;5015814;28;20395;-77